createdAt,value
2018-06-05T00:00:08.729Z,81.99
2018-06-05T00:01:08.737Z,80.55
2018-06-05T00:02:08.754Z,80.84
2018-06-05T00:03:08.768Z,81.90
2018-06-05T00:04:08.796Z,81.81
2018-06-05T00:05:08.792Z,81.99
2018-06-05T00:06:08.804Z,82.09
2018-06-05T00:07:08.833Z,82.48
2018-06-05T00:08:08.829Z,81.81
2018-06-05T00:09:08.848Z,82.43
2018-06-05T00:10:08.863Z,83.11
2018-06-05T00:11:08.871Z,83.30
2018-06-05T00:12:08.880Z,83.30
2018-06-05T00:13:08.906Z,83.49
2018-06-05T00:14:08.908Z,84.26
2018-06-05T00:15:08.932Z,84.31
2018-06-05T00:16:08.963Z,84.70
2018-06-05T00:17:08.948Z,84.80
2018-06-05T00:18:09.101Z,84.51
2018-06-05T00:19:08.972Z,83.54
2018-06-05T00:20:08.984Z,82.53
2018-06-05T00:21:09.008Z,82.43
2018-06-05T00:22:09.012Z,82.15
2018-06-05T00:23:09.056Z,82.24
2018-06-05T00:24:09.035Z,83.40
2018-06-05T00:25:09.059Z,83.59
2018-06-05T00:26:09.064Z,83.30
2018-06-05T00:27:09.080Z,83.69
2018-06-05T00:28:09.088Z,83.78
2018-06-05T00:29:09.127Z,84.51
2018-06-05T00:30:09.115Z,83.84
2018-06-05T00:31:09.129Z,84.80
2018-06-05T00:32:09.147Z,85.18
2018-06-05T00:33:09.154Z,84.99
2018-06-05T00:34:09.170Z,85.37
2018-06-05T00:35:09.192Z,85.57
2018-06-05T00:36:09.189Z,85.75
2018-06-05T00:37:09.203Z,85.75
2018-06-05T00:38:09.223Z,85.66
2018-06-05T00:39:09.231Z,85.37
2018-06-05T00:40:09.244Z,84.89
2018-06-05T00:41:09.275Z,85.24
2018-06-05T00:42:09.272Z,86.10
2018-06-05T00:43:09.283Z,85.81
2018-06-05T00:44:09.302Z,86.38
2018-06-05T00:45:09.306Z,86.68
2018-06-05T00:46:09.330Z,86.38
2018-06-05T00:47:09.340Z,85.91
2018-06-05T00:48:09.347Z,85.91
2018-06-05T00:49:09.402Z,85.28
2018-06-05T00:50:09.371Z,84.89
2018-06-05T00:51:09.386Z,84.31
2018-06-05T00:52:09.400Z,84.60
2018-06-05T00:53:09.420Z,84.51
2018-06-05T00:54:09.421Z,83.64
2018-06-05T00:55:09.434Z,84.03
2018-06-05T00:56:09.446Z,84.60
2018-06-05T00:57:09.459Z,84.99
2018-06-05T00:58:09.472Z,85.37
2018-06-05T00:59:09.488Z,85.62
2018-06-05T01:00:09.497Z,85.57
2018-06-05T01:01:09.511Z,85.08
2018-06-05T01:02:09.527Z,85.04
2018-06-05T01:03:09.540Z,84.22
2018-06-05T01:04:09.550Z,84.22
2018-06-05T01:05:09.567Z,84.37
2018-06-05T01:06:09.580Z,84.56
2018-06-05T01:07:09.589Z,85.04
2018-06-05T01:08:09.601Z,84.85
2018-06-05T01:09:09.612Z,85.04
2018-06-05T01:10:09.624Z,85.77
2018-06-05T01:11:09.643Z,86.72
2018-06-05T01:12:09.647Z,86.72
2018-06-05T01:13:09.670Z,87.78
2018-06-05T01:14:09.680Z,87.88
2018-06-05T01:15:09.687Z,87.88
2018-06-05T01:16:09.698Z,88.84
2018-06-05T01:17:09.715Z,88.65
2018-06-05T01:18:09.730Z,87.78
2018-06-05T01:19:09.737Z,88.26
2018-06-05T01:20:09.749Z,88.45
2018-06-05T01:21:09.766Z,87.30
2018-06-05T01:22:09.777Z,87.68
2018-06-05T01:23:09.805Z,88.07
2018-06-05T01:24:09.808Z,87.30
2018-06-05T01:25:09.812Z,87.21
2018-06-05T01:26:09.828Z,86.92
2018-06-05T01:27:09.840Z,86.92
2018-06-05T01:28:09.849Z,86.68
2018-06-05T01:29:09.871Z,86.00
2018-06-05T01:30:09.882Z,85.71
2018-06-05T01:31:09.897Z,85.71
2018-06-05T01:32:09.908Z,85.58
2018-06-05T01:33:09.913Z,85.58
2018-06-05T01:34:09.933Z,85.04
2018-06-05T01:35:09.939Z,85.10
2018-06-05T01:36:09.973Z,84.91
2018-06-05T01:37:09.964Z,84.81
2018-06-05T01:38:09.977Z,84.14
2018-06-05T01:39:10.018Z,84.27
2018-06-05T01:40:10.000Z,84.18
2018-06-05T01:41:10.013Z,84.08
2018-06-05T01:42:10.031Z,85.14
2018-06-05T01:43:10.043Z,84.66
2018-06-05T01:44:10.056Z,84.85
2018-06-05T01:45:10.059Z,84.27
2018-06-05T01:46:10.079Z,83.70
2018-06-05T01:47:10.088Z,84.56
2018-06-05T01:48:10.096Z,83.98
2018-06-05T01:49:10.118Z,83.31
2018-06-05T01:50:10.122Z,85.04
2018-06-05T01:51:10.136Z,85.04
2018-06-05T01:52:10.148Z,85.71
2018-06-05T01:53:10.160Z,85.91
2018-06-05T01:54:10.172Z,85.04
2018-06-05T01:55:10.191Z,84.75
2018-06-05T01:56:10.223Z,84.08
2018-06-05T01:57:10.214Z,84.18
2018-06-05T01:58:10.226Z,84.27
2018-06-05T01:59:10.236Z,83.89
2018-06-05T02:00:10.247Z,84.23
2018-06-05T02:01:10.262Z,84.95
2018-06-05T02:02:10.269Z,85.52
2018-06-05T02:03:10.299Z,85.42
2018-06-05T02:04:10.298Z,86.29
2018-06-05T02:05:10.311Z,86.48
2018-06-05T02:06:10.320Z,85.81
2018-06-05T02:07:10.342Z,86.05
2018-06-05T02:08:10.343Z,86.15
2018-06-05T02:09:10.362Z,86.72
2018-06-05T02:10:10.369Z,86.82
2018-06-05T02:11:10.383Z,86.72
2018-06-05T02:12:10.395Z,87.55
2018-06-05T02:13:10.408Z,87.98
2018-06-05T02:14:10.420Z,87.55
2018-06-05T02:15:10.442Z,88.22
2018-06-05T02:16:10.441Z,88.79
2018-06-05T02:17:10.469Z,89.08
2018-06-05T02:18:10.467Z,89.65
2018-06-05T02:19:10.482Z,89.47
2018-06-05T02:20:10.492Z,89.65
2018-06-05T02:21:10.511Z,89.47
2018-06-05T02:22:10.517Z,88.89
2018-06-05T02:23:10.529Z,89.23
2018-06-05T02:24:10.540Z,89.90
2018-06-05T02:25:10.553Z,90.09
2018-06-05T02:26:10.572Z,90.33
2018-06-05T02:27:10.612Z,89.47
2018-06-05T02:28:10.598Z,89.13
2018-06-05T02:29:10.602Z,89.37
2018-06-05T02:30:10.614Z,88.51
2018-06-05T02:31:10.626Z,88.51
2018-06-05T02:32:10.641Z,89.08
2018-06-05T02:33:10.681Z,89.23
2018-06-05T02:34:10.716Z,89.42
2018-06-05T02:35:10.683Z,89.37
2018-06-05T02:36:10.694Z,88.51
2018-06-05T02:37:10.702Z,88.79
2018-06-05T02:38:10.713Z,89.18
2018-06-05T02:39:10.725Z,89.56
2018-06-05T02:40:10.756Z,89.37
2018-06-05T02:41:10.748Z,90.14
2018-06-05T02:42:10.760Z,89.47
2018-06-05T02:43:10.778Z,88.51
2018-06-05T02:44:10.782Z,88.02
2018-06-05T02:45:10.800Z,87.84
2018-06-05T02:46:10.805Z,86.78
2018-06-05T02:47:10.819Z,86.01
2018-06-05T02:48:10.828Z,86.40
2018-06-05T02:49:10.846Z,86.68
2018-06-05T02:50:10.869Z,86.49
2018-06-05T02:51:10.903Z,86.68
2018-06-05T02:52:10.881Z,87.45
2018-06-05T02:53:10.906Z,87.64
2018-06-05T02:54:10.903Z,88.31
2018-06-05T02:55:10.916Z,87.64
2018-06-05T02:56:10.926Z,86.30
2018-06-05T02:57:10.975Z,86.68
2018-06-05T02:58:10.951Z,86.78
2018-06-05T02:59:10.962Z,86.49
2018-06-05T03:00:10.980Z,86.68
2018-06-05T03:01:10.985Z,86.68
2018-06-05T03:02:10.999Z,87.26
2018-06-05T03:03:11.018Z,87.64
2018-06-05T03:04:11.020Z,87.70
2018-06-05T03:05:11.033Z,87.88
2018-06-05T03:06:11.050Z,87.79
2018-06-05T03:07:11.058Z,89.04
2018-06-05T03:08:11.068Z,88.94
2018-06-05T03:09:11.084Z,90.28
2018-06-05T03:10:11.096Z,90.57
2018-06-05T03:11:11.116Z,90.47
2018-06-05T03:12:11.114Z,90.43
2018-06-05T03:13:11.127Z,91.29
2018-06-05T03:14:11.146Z,91.39
2018-06-05T03:15:11.164Z,91.49
2018-06-05T03:16:11.164Z,91.86
2018-06-05T03:17:11.174Z,92.06
2018-06-05T03:18:11.193Z,92.15
2018-06-05T03:19:11.202Z,92.35
2018-06-05T03:20:11.214Z,91.86
2018-06-05T03:21:11.234Z,92.44
2018-06-05T03:22:11.235Z,93.21
2018-06-05T03:23:11.254Z,93.98
2018-06-05T03:24:11.262Z,93.78
2018-06-05T03:25:11.268Z,93.98
2018-06-05T03:26:11.283Z,93.59
2018-06-05T03:27:11.295Z,94.07
2018-06-05T03:28:11.311Z,93.98
2018-06-05T03:29:11.321Z,93.78
2018-06-05T03:30:11.330Z,94.35
2018-06-05T03:31:11.345Z,94.35
2018-06-05T03:32:11.354Z,94.17
2018-06-05T03:33:11.365Z,93.88
2018-06-05T03:34:11.389Z,93.69
2018-06-05T03:35:11.386Z,93.40
2018-06-05T03:36:11.399Z,93.21
2018-06-05T03:37:11.411Z,92.63
2018-06-05T03:38:11.421Z,93.02
2018-06-05T03:39:11.435Z,92.15
2018-06-05T03:40:11.459Z,92.44
2018-06-05T03:41:11.456Z,92.15
2018-06-05T03:42:11.469Z,92.15
2018-06-05T03:43:11.481Z,92.92
2018-06-05T03:44:11.500Z,92.92
2018-06-05T03:45:11.506Z,91.96
2018-06-05T03:46:11.515Z,92.25
2018-06-05T03:47:11.533Z,91.96
2018-06-05T03:48:11.543Z,92.15
2018-06-05T03:49:11.566Z,92.15
2018-06-05T03:50:11.562Z,93.02
2018-06-05T03:51:11.575Z,92.82
2018-06-05T03:52:11.585Z,93.40
2018-06-05T03:53:11.598Z,93.49
2018-06-05T03:54:11.616Z,92.25
2018-06-05T03:55:11.621Z,91.86
2018-06-05T03:56:11.636Z,92.15
2018-06-05T03:57:11.686Z,92.35
2018-06-05T03:58:11.662Z,92.15
2018-06-05T03:59:11.668Z,92.92
2018-06-05T04:00:11.686Z,92.44
2018-06-05T04:01:11.689Z,92.15
2018-06-05T04:02:11.704Z,92.63
2018-06-05T04:03:11.943Z,92.15
2018-06-05T04:04:11.726Z,91.39
2018-06-05T04:05:11.736Z,91.34
2018-06-05T04:06:11.753Z,90.67
2018-06-05T04:07:11.767Z,90.47
2018-06-05T04:08:11.774Z,90.38
2018-06-05T04:09:11.783Z,90.67
2018-06-05T04:10:11.796Z,91.05
2018-06-05T04:11:11.810Z,91.24
2018-06-05T04:12:11.826Z,90.38
2018-06-05T04:13:11.836Z,91.24
2018-06-05T04:14:11.843Z,90.67
2018-06-05T04:15:11.851Z,90.28
2018-06-05T04:16:11.865Z,90.76
2018-06-05T04:17:11.877Z,90.28
2018-06-05T04:18:11.913Z,90.47
2018-06-05T04:19:11.900Z,90.38
2018-06-05T04:20:11.912Z,90.00
2018-06-05T04:21:11.923Z,90.47
2018-06-05T04:22:11.938Z,90.67
2018-06-05T04:23:11.950Z,90.81
2018-06-05T04:24:11.963Z,90.42
2018-06-05T04:25:11.972Z,91.05
2018-06-05T04:26:11.982Z,92.20
2018-06-05T04:27:12.017Z,92.49
2018-06-05T04:28:12.004Z,93.26
2018-06-05T04:29:12.016Z,93.44
2018-06-05T04:30:12.038Z,93.44
2018-06-05T04:31:12.047Z,94.02
2018-06-05T04:32:12.057Z,94.02
2018-06-05T04:33:12.065Z,94.59
2018-06-05T04:34:12.076Z,95.07
2018-06-05T04:35:12.086Z,94.79
2018-06-05T04:36:12.166Z,95.17
2018-06-05T04:37:12.110Z,95.26
2018-06-05T04:38:12.126Z,95.36
2018-06-05T04:39:12.135Z,96.13
2018-06-05T04:40:12.146Z,96.70
2018-06-05T04:41:12.158Z,96.80
2018-06-05T04:42:12.177Z,97.18
2018-06-05T04:43:12.179Z,97.85
2018-06-05T04:44:12.194Z,97.38
2018-06-05T04:45:12.212Z,97.38
2018-06-05T04:46:12.217Z,96.89
2018-06-05T04:47:12.237Z,96.99
2018-06-05T04:48:12.248Z,97.85
2018-06-05T04:49:12.264Z,97.38
2018-06-05T04:50:12.262Z,96.89
2018-06-05T04:51:12.277Z,96.42
2018-06-05T04:52:12.290Z,96.13
2018-06-05T04:53:12.345Z,96.66
2018-06-05T04:54:12.315Z,97.71
2018-06-05T04:55:12.327Z,98.19
2018-06-05T04:56:12.333Z,98.28
2018-06-05T04:57:12.346Z,98.38
2018-06-05T04:58:12.359Z,98.77
2018-06-05T04:59:12.368Z,97.71
2018-06-05T05:00:12.383Z,97.81
2018-06-05T05:01:12.392Z,96.99
2018-06-05T05:02:12.402Z,97.28
2018-06-05T05:03:12.417Z,96.89
2018-06-05T05:04:12.428Z,96.80
2018-06-05T05:05:12.437Z,96.03
2018-06-05T05:06:12.459Z,95.84
2018-06-05T05:07:12.462Z,95.75
2018-06-05T05:08:12.475Z,96.27
2018-06-05T05:09:12.487Z,96.47
2018-06-05T05:10:12.498Z,96.18
2018-06-05T05:11:12.511Z,96.18
2018-06-05T05:12:12.528Z,95.50
2018-06-05T05:13:12.536Z,95.21
2018-06-05T05:14:12.547Z,94.35
2018-06-05T05:15:12.560Z,94.98
2018-06-05T05:16:12.571Z,95.55
2018-06-05T05:17:12.587Z,95.75
2018-06-05T05:18:12.602Z,96.03
2018-06-05T05:19:12.612Z,95.55
2018-06-05T05:20:12.623Z,95.65
2018-06-05T05:21:12.632Z,96.03
2018-06-05T05:22:12.646Z,96.61
2018-06-05T05:23:12.680Z,96.13
2018-06-05T05:24:12.675Z,97.09
2018-06-05T05:25:12.686Z,97.66
2018-06-05T05:26:12.697Z,97.19
2018-06-05T05:27:12.707Z,97.04
2018-06-05T05:28:12.721Z,96.66
2018-06-05T05:29:12.740Z,96.85
2018-06-05T05:30:12.744Z,95.07
2018-06-05T05:31:12.760Z,96.03
2018-06-05T05:32:12.771Z,96.03
2018-06-05T05:33:12.783Z,96.99
2018-06-05T05:34:12.796Z,96.22
2018-06-05T05:35:12.812Z,96.70
2018-06-05T05:36:12.819Z,96.85
2018-06-05T05:37:12.832Z,96.56
2018-06-05T05:38:12.849Z,96.22
2018-06-05T05:39:12.914Z,97.33
2018-06-05T05:40:12.873Z,96.56
2018-06-05T05:41:12.899Z,96.85
2018-06-05T05:42:12.897Z,95.70
2018-06-05T05:43:12.909Z,94.45
2018-06-05T05:44:12.919Z,95.70
2018-06-05T05:45:12.934Z,94.26
2018-06-05T05:46:12.945Z,95.70
2018-06-05T05:47:12.964Z,95.40
2018-06-05T05:48:12.968Z,95.40
2018-06-05T05:49:12.983Z,94.73
2018-06-05T05:50:12.998Z,94.93
2018-06-05T05:51:13.009Z,95.31
2018-06-05T05:52:13.022Z,96.17
2018-06-05T05:53:13.034Z,95.21
2018-06-05T05:54:13.051Z,95.21
2018-06-05T05:55:13.059Z,95.98
2018-06-05T05:56:13.076Z,95.03
2018-06-05T05:57:13.086Z,96.85
2018-06-05T05:58:13.098Z,96.75
2018-06-05T05:59:13.114Z,96.47
2018-06-05T06:00:13.127Z,96.27
2018-06-05T06:01:13.146Z,96.70
2018-06-05T06:02:13.150Z,97.57
2018-06-05T06:03:13.166Z,96.80
2018-06-05T06:04:13.176Z,96.99
2018-06-05T06:05:13.198Z,96.99
2018-06-05T06:06:13.202Z,94.21
2018-06-05T06:07:13.224Z,93.53
2018-06-05T06:08:13.227Z,94.15
2018-06-05T06:09:13.240Z,95.07
2018-06-05T06:10:13.255Z,94.78
2018-06-05T06:11:13.265Z,91.42
2018-06-05T06:12:13.280Z,93.38
2018-06-05T06:13:13.297Z,92.86
2018-06-05T06:14:13.304Z,92.71
2018-06-05T06:15:13.318Z,92.81
2018-06-05T06:16:13.330Z,92.86
2018-06-05T06:17:13.344Z,92.76
2018-06-05T06:18:13.357Z,93.73
2018-06-05T06:19:13.379Z,92.86
2018-06-05T06:20:13.387Z,91.32
2018-06-05T06:21:13.395Z,90.45
2018-06-05T06:22:13.409Z,89.64
2018-06-05T06:23:13.421Z,90.59
2018-06-05T06:24:13.433Z,90.98
2018-06-05T06:25:13.454Z,90.21
2018-06-05T06:26:13.465Z,91.17
2018-06-05T06:27:13.472Z,90.50
2018-06-05T06:28:13.486Z,90.21
2018-06-05T06:29:13.501Z,89.92
2018-06-05T06:30:13.512Z,89.64
2018-06-05T06:31:13.525Z,88.57
2018-06-05T06:32:13.544Z,89.15
2018-06-05T06:33:13.554Z,89.92
2018-06-05T06:34:13.562Z,89.44
2018-06-05T06:35:13.577Z,90.12
2018-06-05T06:36:13.585Z,90.69
2018-06-05T06:37:13.599Z,90.79
2018-06-05T06:38:13.616Z,90.98
2018-06-05T06:39:13.627Z,90.79
2018-06-05T06:40:13.644Z,89.58
2018-06-05T06:41:13.657Z,90.16
2018-06-05T06:42:13.664Z,90.45
2018-06-05T06:43:13.685Z,91.03
2018-06-05T06:44:13.693Z,89.39
2018-06-05T06:45:13.700Z,90.16
2018-06-05T06:46:13.716Z,89.49
2018-06-05T06:47:13.933Z,89.29
2018-06-05T06:48:13.743Z,88.71
2018-06-05T06:49:13.778Z,88.71
2018-06-05T06:50:13.769Z,89.29
2018-06-05T06:51:13.777Z,88.53
2018-06-05T06:52:13.790Z,89.49
2018-06-05T06:53:13.805Z,89.34
2018-06-05T06:54:13.826Z,89.29
2018-06-05T06:55:13.829Z,89.82
2018-06-05T06:56:13.856Z,90.30
2018-06-05T06:57:13.853Z,90.11
2018-06-05T06:58:13.868Z,88.76
2018-06-05T06:59:13.884Z,89.49
2018-06-05T07:00:13.899Z,89.43
2018-06-05T07:01:13.906Z,90.45
2018-06-05T07:02:13.927Z,89.72
2018-06-05T07:03:13.940Z,90.69
2018-06-05T07:04:13.947Z,90.35
2018-06-05T07:05:13.964Z,90.11
2018-06-05T07:06:13.989Z,88.76
2018-06-05T07:07:13.986Z,90.40
2018-06-05T07:08:13.996Z,89.82
2018-06-05T07:09:14.009Z,90.50
2018-06-05T07:10:14.024Z,90.50
2018-06-05T07:11:14.050Z,89.15
2018-06-05T07:12:14.078Z,87.70
2018-06-05T07:13:14.061Z,88.47
2018-06-05T07:14:14.075Z,89.05
2018-06-05T07:15:14.088Z,88.76
2018-06-05T07:16:14.102Z,90.69
2018-06-05T07:17:14.124Z,92.03
2018-06-05T07:18:14.131Z,89.05
2018-06-05T07:19:14.146Z,89.82
2018-06-05T07:20:14.155Z,90.69
2018-06-05T07:21:14.168Z,89.82
2018-06-05T07:22:14.179Z,89.92
2018-06-05T07:23:14.193Z,90.50
2018-06-05T07:24:14.214Z,89.43
2018-06-05T07:25:14.219Z,87.74
2018-06-05T07:26:14.360Z,87.07
2018-06-05T07:27:14.246Z,86.59
2018-06-05T07:28:14.271Z,88.32
2018-06-05T07:29:14.270Z,89.00
2018-06-05T07:30:14.296Z,89.48
2018-06-05T07:31:14.305Z,88.90
2018-06-05T07:32:14.311Z,86.98
2018-06-05T07:33:14.332Z,86.69
2018-06-05T07:34:14.336Z,86.40
2018-06-05T07:35:14.351Z,86.11
2018-06-05T07:36:14.363Z,86.78
2018-06-05T07:37:14.388Z,87.12
2018-06-05T07:38:14.391Z,85.47
2018-06-05T07:39:14.405Z,86.44
2018-06-05T07:40:14.417Z,84.03
2018-06-05T07:41:14.430Z,84.80
2018-06-05T07:42:14.452Z,85.28
2018-06-05T07:43:14.463Z,86.73
2018-06-05T07:44:14.472Z,86.54
2018-06-05T07:45:14.514Z,85.57
2018-06-05T07:46:14.508Z,83.36
2018-06-05T07:47:14.542Z,84.42
2018-06-05T07:48:14.545Z,86.05
2018-06-05T07:49:14.545Z,86.92
2018-06-05T07:50:14.548Z,85.67
2018-06-05T07:51:14.567Z,87.30
2018-06-05T07:52:14.580Z,87.30
2018-06-05T07:53:14.591Z,85.86
2018-06-05T07:54:14.606Z,87.60
2018-06-05T07:55:14.631Z,87.30
2018-06-05T07:56:14.632Z,84.80
2018-06-05T07:57:14.652Z,84.52
2018-06-05T07:58:14.706Z,84.99
2018-06-05T07:59:14.670Z,84.84
2018-06-05T08:00:14.691Z,86.92
2018-06-05T08:01:14.717Z,86.92
2018-06-05T08:02:14.719Z,87.12
2018-06-05T08:03:14.726Z,86.92
2018-06-05T08:04:14.743Z,82.53
2018-06-05T08:05:14.752Z,82.62
2018-06-05T08:06:14.765Z,83.20
2018-06-05T08:07:14.778Z,84.27
2018-06-05T08:08:14.793Z,88.51
2018-06-05T08:09:14.816Z,88.99
2018-06-05T08:10:14.819Z,86.58
2018-06-05T08:11:14.832Z,84.65
2018-06-05T08:12:14.847Z,87.83
2018-06-05T08:13:14.863Z,89.57
2018-06-05T08:14:14.874Z,88.51
2018-06-05T08:15:14.891Z,88.02
2018-06-05T08:16:14.900Z,87.06
2018-06-05T08:17:14.913Z,87.16
2018-06-05T08:18:14.939Z,87.26
2018-06-05T08:19:14.941Z,85.27
2018-06-05T08:20:14.956Z,83.73
2018-06-05T08:21:14.975Z,84.50
2018-06-05T08:22:14.982Z,85.46
2018-06-05T08:23:15.003Z,85.46
2018-06-05T08:24:15.011Z,85.08
2018-06-05T08:25:15.035Z,86.04
2018-06-05T08:26:15.040Z,86.52
2018-06-05T08:27:15.056Z,83.44
2018-06-05T08:28:15.070Z,83.05
2018-06-05T08:29:15.079Z,82.71
2018-06-05T08:30:15.095Z,81.16
2018-06-05T08:31:15.105Z,80.49
2018-06-05T08:32:15.120Z,79.04
2018-06-05T08:33:15.145Z,79.24
2018-06-05T08:34:15.149Z,80.68
2018-06-05T08:35:15.161Z,80.20
2018-06-05T08:36:15.176Z,79.24
2018-06-05T08:37:15.189Z,78.85
2018-06-05T08:38:15.204Z,79.81
2018-06-05T08:39:15.222Z,82.90
2018-06-05T08:40:15.239Z,82.81
2018-06-05T08:41:15.247Z,81.07
2018-06-05T08:42:15.260Z,81.65
2018-06-05T08:43:15.274Z,81.35
2018-06-05T08:44:15.286Z,80.49
2018-06-05T08:45:15.313Z,80.30
2018-06-05T08:46:15.325Z,81.84
2018-06-05T08:47:15.329Z,81.93
2018-06-05T08:48:15.342Z,81.32
2018-06-05T08:49:15.358Z,82.18
2018-06-05T08:50:15.371Z,83.05
2018-06-05T08:51:15.387Z,83.53
2018-06-05T08:52:15.406Z,82.28
2018-06-05T08:53:15.415Z,83.25
2018-06-05T08:54:15.459Z,81.80
2018-06-05T08:55:15.443Z,84.41
2018-06-05T08:56:15.455Z,83.05
2018-06-05T08:57:15.471Z,83.83
2018-06-05T08:58:15.493Z,82.90
2018-06-05T08:59:15.496Z,85.70
2018-06-05T09:00:15.511Z,85.89
2018-06-05T09:01:15.527Z,88.69
2018-06-05T09:02:15.539Z,87.34
2018-06-05T09:03:15.554Z,87.92
2018-06-05T09:04:15.567Z,85.41
2018-06-05T09:05:15.622Z,83.09
2018-06-05T09:06:15.600Z,84.35
2018-06-05T09:07:15.611Z,86.18
2018-06-05T09:08:15.626Z,87.44
2018-06-05T09:09:15.641Z,83.96
2018-06-05T09:10:15.652Z,85.02
2018-06-05T09:11:15.668Z,84.30
2018-06-05T09:12:15.690Z,84.58
2018-06-05T09:13:15.697Z,81.11
2018-06-05T09:14:15.708Z,79.95
2018-06-05T09:15:15.725Z,79.47
2018-06-05T09:16:15.734Z,81.11
2018-06-05T09:17:15.755Z,81.49
2018-06-05T09:18:15.770Z,80.72
2018-06-05T09:19:15.785Z,79.85
2018-06-05T09:20:15.792Z,80.33
2018-06-05T09:21:15.807Z,81.20
2018-06-05T09:22:15.822Z,80.58
2018-06-05T09:23:15.844Z,81.35
2018-06-05T09:24:15.851Z,78.69
2018-06-05T09:25:15.871Z,78.73
2018-06-05T09:26:15.880Z,77.48
2018-06-05T09:27:16.705Z,79.22
2018-06-05T09:28:15.910Z,82.02
2018-06-05T09:29:15.926Z,80.57
2018-06-05T09:30:15.947Z,80.66
2018-06-05T09:31:15.967Z,79.50
2018-06-05T09:32:15.964Z,79.89
2018-06-05T09:33:15.988Z,80.86
2018-06-05T09:34:16.000Z,82.40
2018-06-05T09:35:16.011Z,81.82
2018-06-05T09:36:16.019Z,79.31
2018-06-05T09:37:16.065Z,80.18
2018-06-05T09:38:16.052Z,80.12
2018-06-05T09:39:16.076Z,80.22
2018-06-05T09:40:16.082Z,80.86
2018-06-05T09:41:16.097Z,76.45
2018-06-05T09:42:16.111Z,76.06
2018-06-05T09:43:16.124Z,77.22
2018-06-05T09:44:16.142Z,80.36
2018-06-05T09:45:16.187Z,81.23
2018-06-05T09:46:16.174Z,80.65
2018-06-05T09:47:16.187Z,79.00
2018-06-05T09:48:16.195Z,82.78
2018-06-05T09:49:16.218Z,82.58
2018-06-05T09:50:16.223Z,79.97
2018-06-05T09:51:16.263Z,77.26
2018-06-05T09:52:16.359Z,77.36
2018-06-05T09:53:16.703Z,76.97
2018-06-05T09:54:16.283Z,77.26
2018-06-05T09:55:16.298Z,81.04
2018-06-05T09:56:16.314Z,78.61
2018-06-05T09:57:16.331Z,77.36
2018-06-05T09:58:16.485Z,79.00
2018-06-05T09:59:16.388Z,79.04
2018-06-05T10:00:16.373Z,79.82
2018-06-05T10:01:16.388Z,82.14
2018-06-05T10:02:16.407Z,83.78
2018-06-05T10:03:16.415Z,76.49
2018-06-05T10:04:16.434Z,74.65
2018-06-05T10:05:16.445Z,78.79
2018-06-05T10:06:16.473Z,74.63
2018-06-05T10:07:16.481Z,69.82
2018-06-05T10:08:16.493Z,71.56
2018-06-05T10:09:16.511Z,72.05
2018-06-05T10:10:16.522Z,69.92
2018-06-05T10:11:16.536Z,74.76
2018-06-05T10:12:16.562Z,72.96
2018-06-05T10:13:16.583Z,70.89
2018-06-05T10:14:16.582Z,70.44
2018-06-05T10:15:16.600Z,70.34
2018-06-05T10:16:16.609Z,70.63
2018-06-05T10:17:16.631Z,69.67
2018-06-05T10:18:16.642Z,68.40
2018-06-05T10:19:17.037Z,69.37
2018-06-05T10:20:16.731Z,69.95
2018-06-05T10:21:16.684Z,70.37
2018-06-05T10:22:16.704Z,68.24
2018-06-05T10:23:16.812Z,68.05
2018-06-05T10:24:16.732Z,71.73
2018-06-05T10:25:16.746Z,68.05
2018-06-05T10:26:16.763Z,67.72
2018-06-05T10:27:16.778Z,68.24
2018-06-05T10:28:16.856Z,67.85
2018-06-05T10:29:16.806Z,69.89
2018-06-05T10:30:16.828Z,68.92
2018-06-05T10:31:16.843Z,65.72
2018-06-05T10:32:16.855Z,64.85
2018-06-05T10:33:16.868Z,66.79
2018-06-05T10:34:16.895Z,65.63
2018-06-05T10:35:16.905Z,65.82
2018-06-05T10:36:16.928Z,65.92
2018-06-05T10:37:16.932Z,65.92
2018-06-05T10:38:16.954Z,67.08
2018-06-05T10:39:16.960Z,68.34
2018-06-05T10:40:17.050Z,68.05
2018-06-05T10:41:16.994Z,68.44
2018-06-05T10:42:17.007Z,68.34
2018-06-05T10:43:17.024Z,68.47
2018-06-05T10:44:17.039Z,69.93
2018-06-05T10:45:17.668Z,69.44
2018-06-05T10:46:17.068Z,69.60
2018-06-05T10:47:17.090Z,69.54
2018-06-05T10:48:17.118Z,69.50
2018-06-05T10:49:17.117Z,69.99
2018-06-05T10:50:17.131Z,68.08
2018-06-05T10:51:17.148Z,71.06
2018-06-05T10:52:17.164Z,70.12
2018-06-05T10:53:17.175Z,72.55
2018-06-05T10:54:17.192Z,71.28
2018-06-05T10:55:17.216Z,69.48
2018-06-05T10:56:17.225Z,70.35
2018-06-05T10:57:17.239Z,67.34
2018-06-05T10:58:17.255Z,67.44
2018-06-05T10:59:17.277Z,66.08
2018-06-05T11:00:17.289Z,64.82
2018-06-05T11:01:17.336Z,66.50
2018-06-05T11:02:17.318Z,67.47
2018-06-05T11:03:17.337Z,67.18
2018-06-05T11:04:17.351Z,67.66
2018-06-05T11:05:17.367Z,66.99
2018-06-05T11:06:17.404Z,67.02
2018-06-05T11:07:17.397Z,66.24
2018-06-05T11:08:17.419Z,64.98
2018-06-05T11:09:17.466Z,64.69
2018-06-05T11:10:17.453Z,67.54
2018-06-05T11:11:17.490Z,61.02
2018-06-05T11:12:17.482Z,58.11
2018-06-05T11:13:17.492Z,59.08
2018-06-05T11:14:17.516Z,59.79
2018-06-05T11:15:17.550Z,60.77
2018-06-05T11:16:17.576Z,58.04
2018-06-05T11:17:17.560Z,58.33
2018-06-05T11:18:17.597Z,58.21
2018-06-05T11:19:17.592Z,58.98
2018-06-05T11:20:17.607Z,56.68
2018-06-05T11:21:17.630Z,58.14
2018-06-05T11:22:17.659Z,59.01
2018-06-05T11:23:17.658Z,58.33
2018-06-05T11:24:17.674Z,59.23
2018-06-05T11:25:17.690Z,57.46
2018-06-05T11:26:17.709Z,60.02
2018-06-05T11:27:17.723Z,56.51
2018-06-05T11:28:17.778Z,52.72
2018-06-05T11:29:17.757Z,52.16
2018-06-05T11:30:17.773Z,53.16
2018-06-05T11:31:17.790Z,54.97
2018-06-05T11:32:17.806Z,50.31
2018-06-05T11:33:17.824Z,52.87
2018-06-05T11:34:17.874Z,51.73
2018-06-05T11:35:17.859Z,51.26
2018-06-05T11:36:17.879Z,51.95
2018-06-05T11:37:17.896Z,48.80
2018-06-05T11:38:17.917Z,47.38
2018-06-05T11:39:17.936Z,45.79
2018-06-05T11:40:17.964Z,44.44
2018-06-05T11:41:17.976Z,43.76
2018-06-05T11:42:17.999Z,42.31
2018-06-05T11:43:18.018Z,41.45
2018-06-05T11:44:18.036Z,39.41
2018-06-05T11:45:18.060Z,38.82
2018-06-05T11:46:18.092Z,39.84
2018-06-05T11:47:18.105Z,39.54
2018-06-05T11:48:18.132Z,39.66
2018-06-05T11:49:18.154Z,40.37
2018-06-05T11:50:18.181Z,40.09
2018-06-05T11:51:18.201Z,39.50
2018-06-05T11:52:18.225Z,38.13
2018-06-05T11:53:18.244Z,37.10
2018-06-05T11:54:18.325Z,34.74
2018-06-05T11:55:18.296Z,34.94
2018-06-05T11:56:18.320Z,35.02
2018-06-05T11:57:18.350Z,36.22
2018-06-05T11:58:18.400Z,35.94
2018-06-05T11:59:18.400Z,36.55
2018-06-05T12:00:18.424Z,34.97
2018-06-05T12:01:18.447Z,34.20
2018-06-05T12:02:18.478Z,35.68
2018-06-05T12:03:18.501Z,34.67
2018-06-05T12:04:18.527Z,34.39
2018-06-05T12:05:18.582Z,35.18
2018-06-05T12:06:18.582Z,35.60
2018-06-05T12:07:18.620Z,34.49
2018-06-05T12:08:18.675Z,33.59
2018-06-05T12:09:18.677Z,32.92
2018-06-05T12:10:18.695Z,33.80
2018-06-05T12:11:18.741Z,34.01
2018-06-05T12:12:18.750Z,32.73
2018-06-05T12:13:18.779Z,33.44
2018-06-05T12:14:18.805Z,32.14
2018-06-05T12:15:18.837Z,32.97
2018-06-05T12:16:18.872Z,31.29
2018-06-05T12:17:18.892Z,36.63
2018-06-05T12:18:18.925Z,33.58
2018-06-05T12:19:18.952Z,31.76
2018-06-05T12:20:18.980Z,30.17
2018-06-05T12:21:19.009Z,30.79
2018-06-05T12:22:19.047Z,32.79
2018-06-05T12:23:19.067Z,35.21
2018-06-05T12:24:19.100Z,36.74
2018-06-05T12:25:19.124Z,33.97
2018-06-05T12:26:19.161Z,33.51
2018-06-05T12:27:19.184Z,32.79
2018-06-05T12:28:19.206Z,31.15
2018-06-05T12:29:19.231Z,30.40
2018-06-05T12:30:19.257Z,30.03
2018-06-05T12:31:19.291Z,31.65
2018-06-05T12:32:19.309Z,29.17
2018-06-05T12:33:19.347Z,29.48
2018-06-05T12:34:19.372Z,31.16
2018-06-05T12:35:19.397Z,30.09
2018-06-05T12:36:19.433Z,29.80
2018-06-05T12:37:19.454Z,29.52
2018-06-05T12:38:19.475Z,28.11
2018-06-05T12:39:19.504Z,28.33
2018-06-05T12:40:19.534Z,28.94
2018-06-05T12:41:19.563Z,28.02
2018-06-05T12:42:19.593Z,31.65
2018-06-05T12:43:19.633Z,30.09
2018-06-05T12:44:19.652Z,29.20
2018-06-05T12:45:19.673Z,28.50
2018-06-05T12:46:19.711Z,29.39
2018-06-05T12:47:19.730Z,29.19
2018-06-05T12:48:19.798Z,29.60
2018-06-05T12:49:19.795Z,29.41
2018-06-05T12:50:19.819Z,30.02
2018-06-05T12:51:19.854Z,27.65
2018-06-05T12:52:19.887Z,28.24